Time;durP1;ratioP1;P1;durP2;ratioP2;P2;SDS_P1;SDS_P2;PMS_P1;PMS_P2;Temp;Humidity;BMP_temperature;BMP_pressure;BME280_temperature;BME280_humidity;BME280_pressure;Samples;Min_cycle;Max_cycle;Signal;HPM_P1;HPM_P2
2024/03/09 00:04:35;;;;;;;18.30;8.25;;;;;;;4.73;55.91;99478.34;10341990;28;20053;-58
2024/03/09 00:09:37;;;;;;;17.67;7.43;;;;;;;4.69;55.97;99482.31;10342401;28;20621;-58
2024/03/09 00:14:38;;;;;;;17.75;8.85;;;;;;;4.64;55.83;99484.59;10347651;28;20417;-58
2024/03/09 00:19:40;;;;;;;15.40;8.15;;;;;;;4.61;55.86;99485.75;10346081;28;20060;-58
2024/03/09 00:24:42;;;;;;;15.68;7.82;;;;;;;4.62;56.33;99484.78;10352625;28;20137;-58
2024/03/09 00:29:43;;;;;;;15.10;7.05;;;;;;;4.55;56.52;99479.25;10351131;28;20054;-58
2024/03/09 00:34:44;;;;;;;15.23;7.78;;;;;;;4.56;56.61;99478.25;10345943;28;20057;-58
2024/03/09 00:39:47;;;;;;;14.70;6.63;;;;;;;4.53;56.78;99472.41;10346598;28;20117;-58
2024/03/09 00:44:48;;;;;;;15.90;7.53;;;;;;;4.49;56.84;99471.06;10351135;28;20042;-57
2024/03/09 00:49:50;;;;;;;16.27;7.97;;;;;;;4.53;56.31;99467.94;10351385;28;20054;-58
2024/03/09 00:54:53;;;;;;;16.02;7.85;;;;;;;4.52;56.60;99471.59;10344748;28;20133;-58
2024/03/09 00:59:55;;;;;;;18.50;7.68;;;;;;;4.41;56.78;99458.56;10343340;28;20524;-58
2024/03/09 01:04:56;;;;;;;19.88;8.10;;;;;;;4.35;56.93;99451.22;10346076;28;20514;-58
2024/03/09 01:09:59;;;;;;;16.58;6.65;;;;;;;4.32;57.05;99447.03;10349123;28;20070;-58
2024/03/09 01:15:01;;;;;;;14.38;7.93;;;;;;;4.18;57.11;99447.59;10352095;28;20047;-58
2024/03/09 01:20:07;;;;;;;20.10;7.82;;;;;;;4.17;57.38;99444.13;10349603;28;20573;-58
2024/03/09 01:25:10;;;;;;;16.13;7.93;;;;;;;4.14;57.43;99441.75;10348264;28;20062;-58
2024/03/09 01:30:12;;;;;;;15.32;7.07;;;;;;;4.11;57.29;99439.44;10348324;28;20046;-58
2024/03/09 01:35:15;;;;;;;15.73;7.13;;;;;;;4.08;57.49;99430.94;10347269;28;20058;-58
2024/03/09 01:40:16;;;;;;;18.17;6.47;;;;;;;4.05;57.77;99431.22;10347805;28;20082;-59
2024/03/09 01:45:18;;;;;;;15.63;7.15;;;;;;;4.01;57.70;99419.25;10347933;28;20133;-58
2024/03/09 01:50:21;;;;;;;19.38;8.35;;;;;;;3.97;57.93;99424.91;10349225;28;20137;-58
2024/03/09 01:55:23;;;;;;;20.85;8.65;;;;;;;3.93;58.15;99414.72;10323287;28;20058;-57
2024/03/09 02:00:25;;;;;;;17.50;7.10;;;;;;;3.95;57.82;99412.75;10345123;28;20051;-57
2024/03/09 02:05:28;;;;;;;15.60;7.88;;;;;;;3.84;58.15;99407.69;10347116;28;20058;-58
2024/03/09 02:10:30;;;;;;;16.63;8.20;;;;;;;3.77;58.43;99418.94;10344587;28;20049;-58
2024/03/09 02:15:33;;;;;;;18.92;7.95;;;;;;;3.85;58.47;99412.84;10345296;28;20058;-58
2024/03/09 02:20:37;;;;;;;18.17;7.50;;;;;;;3.82;58.60;99404.34;10347975;28;20069;-58
2024/03/09 02:25:39;;;;;;;15.93;6.50;;;;;;;3.75;58.55;99394.34;10346294;28;20688;-58
2024/03/09 02:30:44;;;;;;;16.20;7.85;;;;;;;3.66;58.90;99395.28;10344768;28;20104;-58
2024/03/09 02:35:45;;;;;;;18.08;8.15;;;;;;;3.68;59.00;99397.78;10343518;28;20053;-57
2024/03/09 02:40:47;;;;;;;18.60;8.02;;;;;;;3.77;59.17;99384.41;10341473;28;20402;-57
2024/03/09 02:45:48;;;;;;;17.23;7.40;;;;;;;3.73;59.12;99390.16;10343911;28;20046;-58
2024/03/09 02:50:50;;;;;;;18.98;7.72;;;;;;;3.73;59.28;99385.69;10342752;28;20570;-57
2024/03/09 02:55:53;;;;;;;16.48;7.43;;;;;;;3.69;59.22;99383.50;10346307;28;20050;-56
2024/03/09 03:00:55;;;;;;;22.27;8.07;;;;;;;3.71;59.28;99385.03;10324665;28;20482;-58
2024/03/09 03:05:56;;;;;;;19.08;8.18;;;;;;;3.58;59.91;99382.75;10343041;28;20058;-58
2024/03/09 03:10:58;;;;;;;18.40;7.70;;;;;;;3.64;59.73;99365.38;10342938;28;20732;-57
2024/03/09 03:16:00;;;;;;;19.40;9.18;;;;;;;3.65;59.62;99367.00;10343506;28;20042;-57
2024/03/09 03:21:01;;;;;;;19.60;8.43;;;;;;;3.65;59.78;99369.66;10342932;28;20057;-57
2024/03/09 03:26:03;;;;;;;20.27;7.53;;;;;;;3.64;59.78;99364.53;10340777;28;20061;-58
2024/03/09 03:31:05;;;;;;;20.20;9.23;;;;;;;3.53;60.06;99366.44;10339514;28;20073;-57
2024/03/09 03:36:08;;;;;;;20.55;9.05;;;;;;;3.49;60.53;99362.41;10346189;28;20041;-57
2024/03/09 03:41:10;;;;;;;19.92;7.80;;;;;;;3.57;60.09;99365.16;10344160;28;20064;-57
2024/03/09 03:46:13;;;;;;;19.45;8.70;;;;;;;3.51;60.45;99367.59;10341980;28;20058;-57
2024/03/09 03:51:15;;;;;;;21.15;7.85;;;;;;;3.55;60.18;99350.34;10340813;28;20042;-57
2024/03/09 03:56:24;;;;;;;18.55;7.80;;;;;;;3.53;60.29;99347.84;10352522;28;20053;-57
2024/03/09 04:01:26;;;;;;;16.98;7.72;;;;;;;3.53;60.41;99347.00;10348936;28;20097;-57
2024/03/09 04:06:28;;;;;;;22.52;8.32;;;;;;;3.54;60.00;99332.75;10351704;28;20065;-57
2024/03/09 04:11:33;;;;;;;19.35;8.63;;;;;;;3.50;60.11;99337.53;10349660;28;20136;-57
2024/03/09 04:16:35;;;;;;;19.23;8.27;;;;;;;3.59;60.39;99335.75;10350798;28;20144;-58
2024/03/09 04:21:38;;;;;;;22.17;8.85;;;;;;;3.56;59.99;99328.13;10350958;28;20137;-57
2024/03/09 04:26:40;;;;;;;22.50;8.18;;;;;;;3.57;60.33;99327.09;10354435;28;20054;-57
2024/03/09 04:31:44;;;;;;;23.80;9.15;;;;;;;3.45;60.43;99323.03;10348442;28;20054;-57
2024/03/09 04:36:46;;;;;;;21.10;8.43;;;;;;;3.38;61.02;99315.72;10345608;28;20069;-57
2024/03/09 04:41:47;;;;;;;23.45;9.15;;;;;;;3.51;60.90;99311.78;10353374;28;20046;-57
2024/03/09 04:46:51;;;;;;;26.52;11.27;;;;;;;3.52;60.79;99316.13;10351190;28;20485;-58
2024/03/09 04:51:52;;;;;;;30.92;14.07;;;;;;;3.54;60.84;99325.59;10329604;28;20046;-57
2024/03/09 04:56:54;;;;;;;23.00;8.90;;;;;;;3.40;61.38;99320.00;10345834;28;20054;-55
2024/03/09 05:01:56;;;;;;;22.80;8.30;;;;;;;3.45;61.11;99320.38;10343890;28;20050;-57
2024/03/09 05:06:57;;;;;;;20.77;8.95;;;;;;;3.48;61.06;99322.75;10344800;28;20054;-56
2024/03/09 05:11:59;;;;;;;28.83;12.00;;;;;;;3.46;61.01;99314.09;10348358;28;20736;-55
2024/03/09 05:17:00;;;;;;;25.95;13.40;;;;;;;3.44;61.29;99306.28;10349864;28;20552;-55
2024/03/09 05:22:02;;;;;;;23.63;11.68;;;;;;;3.36;61.53;99303.56;10345039;28;20391;-56
2024/03/09 05:27:03;;;;;;;21.58;8.55;;;;;;;3.41;61.09;99300.44;10346786;28;20056;-56
2024/03/09 05:32:05;;;;;;;18.42;8.68;;;;;;;3.45;60.93;99277.88;10342254;28;20053;-55
2024/03/09 05:37:07;;;;;;;17.70;8.43;;;;;;;3.42;61.02;99263.09;10342171;28;20798;-55
2024/03/09 05:42:08;;;;;;;18.67;8.00;;;;;;;3.38;61.45;99269.72;10342267;28;20050;-56
2024/03/09 05:47:10;;;;;;;18.98;7.57;;;;;;;3.45;61.53;99285.84;10345577;28;20056;-56
2024/03/09 05:52:11;;;;;;;19.40;9.27;;;;;;;3.56;61.58;99278.47;10350295;28;20125;-58
2024/03/09 05:57:15;;;;;;;21.25;9.35;;;;;;;3.77;61.32;99280.72;10356581;28;20050;-57
2024/03/09 06:02:17;;;;;;;20.10;7.97;;;;;;;3.94;61.57;99270.16;10348912;28;20056;-57
2024/03/09 06:07:18;;;;;;;23.52;8.13;;;;;;;4.17;60.56;99276.56;10345931;28;20200;-56
2024/03/09 06:12:21;;;;;;;21.80;8.48;;;;;;;4.28;60.47;99262.13;10351098;28;20490;-57
2024/03/09 06:17:22;;;;;;;21.63;8.65;;;;;;;4.41;60.69;99258.19;10346490;28;20109;-58
2024/03/09 06:22:24;;;;;;;24.95;8.23;;;;;;;4.42;61.11;99263.31;10331934;28;20096;-58
2024/03/09 06:27:27;;;;;;;16.60;8.10;;;;;;;4.44;61.02;99271.97;10349773;28;20049;-57
2024/03/09 06:32:28;;;;;;;17.77;7.15;;;;;;;4.61;60.99;99272.00;10348786;28;20038;-57
2024/03/09 06:37:30;;;;;;;19.38;9.27;;;;;;;4.80;60.52;99269.03;10347258;28;20161;-59
2024/03/09 06:42:32;;;;;;;18.13;8.30;;;;;;;5.11;59.77;99266.53;10348107;28;20054;-58
2024/03/09 06:47:33;;;;;;;16.08;7.43;;;;;;;5.27;60.16;99265.69;10346563;28;20076;-56
2024/03/09 06:52:35;;;;;;;17.95;8.35;;;;;;;5.41;60.63;99269.50;10343797;28;20058;-57
2024/03/09 06:57:36;;;;;;;19.80;8.68;;;;;;;5.66;60.36;99256.94;10325579;28;20057;-58
2024/03/09 07:02:39;;;;;;;17.48;7.88;;;;;;;5.90;60.24;99260.53;10343933;28;20050;-57
2024/03/09 07:07:41;;;;;;;16.80;7.28;;;;;;;5.98;59.24;99265.03;10348298;28;20050;-58
2024/03/09 07:12:42;;;;;;;15.90;6.63;;;;;;;6.14;59.26;99262.28;10346003;28;20061;-58
2024/03/09 07:17:49;;;;;;;16.77;7.47;;;;;;;6.39;59.33;99249.63;10342006;28;20451;-59
2024/03/09 07:22:51;;;;;;;17.13;7.65;;;;;;;6.63;58.62;99247.81;10341839;28;20559;-59
2024/03/09 07:27:58;;;;;;;16.20;7.25;;;;;;;6.82;58.50;99259.88;10337401;28;20112;-60
2024/03/09 07:33:00;;;;;;;17.75;7.68;;;;;;;7.01;58.10;99269.22;10344436;28;20050;-60
2024/03/09 07:38:03;;;;;;;17.92;7.72;;;;;;;7.15;57.78;99279.13;10341328;28;20049;-60
2024/03/09 07:43:05;;;;;;;13.93;7.07;;;;;;;7.37;58.14;99258.72;10339752;28;20050;-59
2024/03/09 07:48:07;;;;;;;17.80;7.25;;;;;;;7.52;57.67;99264.91;10345247;28;20136;-60
2024/03/09 07:53:08;;;;;;;13.27;6.55;;;;;;;7.64;57.02;99265.28;10339090;28;20046;-60
2024/03/09 07:58:10;;;;;;;17.42;7.60;;;;;;;7.66;57.19;99271.28;10340678;28;20361;-60
2024/03/09 08:03:25;;;;;;;13.27;7.10;;;;;;;7.83;56.84;99273.78;10328979;28;20473;-60
2024/03/09 08:08:26;;;;;;;15.20;7.18;;;;;;;7.68;57.27;99271.94;10342407;28;20104;-60
2024/03/09 08:13:28;;;;;;;16.30;7.32;;;;;;;7.64;56.90;99261.75;10340979;28;20474;-60
2024/03/09 08:18:31;;;;;;;17.33;7.57;;;;;;;7.84;56.21;99254.88;10340923;28;20176;-60
2024/03/09 08:23:33;;;;;;;16.08;7.78;;;;;;;7.93;56.29;99245.69;10338716;28;20061;-60
2024/03/09 08:28:34;;;;;;;17.70;7.43;;;;;;;7.92;55.97;99237.88;10328255;28;20050;-57
2024/03/09 08:33:36;;;;;;;14.68;7.10;;;;;;;7.95;55.99;99222.25;10343856;28;20058;-57
2024/03/09 08:38:39;;;;;;;14.63;7.32;;;;;;;8.01;56.14;99231.41;10341110;28;20141;-60
2024/03/09 08:43:40;;;;;;;14.88;7.32;;;;;;;8.07;55.73;99237.84;10353142;28;20053;-56
2024/03/09 08:48:43;;;;;;;16.73;7.32;;;;;;;8.12;55.55;99238.94;10346255;28;20781;-59
2024/03/09 08:53:45;;;;;;;16.25;6.78;;;;;;;8.26;55.28;99223.88;10354129;28;20053;-57
2024/03/09 08:58:46;;;;;;;15.98;7.20;;;;;;;8.31;55.70;99218.78;10348708;28;20045;-58
2024/03/09 09:03:48;;;;;;;15.85;8.32;;;;;;;8.52;55.31;99215.31;10342858;28;20066;-59
2024/03/09 09:08:51;;;;;;;17.60;8.20;;;;;;;8.63;55.27;99219.34;10349756;28;20049;-57
2024/03/09 09:13:52;;;;;;;13.63;7.32;;;;;;;8.80;54.95;99219.09;10346008;28;20053;-59
2024/03/09 09:18:55;;;;;;;14.30;6.93;;;;;;;8.97;54.64;99215.13;10349770;28;20658;-58
2024/03/09 09:23:57;;;;;;;13.90;6.35;;;;;;;9.20;54.10;99204.16;10350724;28;20054;-58
2024/03/09 09:28:59;;;;;;;16.25;7.72;;;;;;;9.23;54.06;99206.44;10352920;28;20060;-58
2024/03/09 09:34:01;;;;;;;16.13;6.93;;;;;;;9.43;53.62;99200.38;10348146;28;20058;-60
2024/03/09 09:39:03;;;;;;;16.38;7.72;;;;;;;9.57;53.32;99190.56;10348046;28;20058;-60
2024/03/09 09:44:08;;;;;;;14.43;7.63;;;;;;;9.63;53.21;99182.53;10343925;28;20088;-60
2024/03/09 09:49:10;;;;;;;14.60;7.13;;;;;;;9.74;53.24;99183.84;10345478;28;20050;-60
2024/03/09 09:54:12;;;;;;;12.57;6.75;;;;;;;9.85;52.81;99185.09;10343661;28;20058;-60
2024/03/09 09:59:14;;;;;;;19.38;7.88;;;;;;;9.93;52.76;99172.34;10349542;28;20038;-60
2024/03/09 10:04:18;;;;;;;14.43;7.72;;;;;;;10.05;52.43;99158.31;10349014;28;20042;-60
2024/03/09 10:09:30;;;;;;;13.02;7.00;;;;;;;10.20;52.25;99150.13;10349363;28;20081;-60
2024/03/09 10:14:36;;;;;;;17.30;8.25;;;;;;;10.29;51.81;99144.34;10346029;28;20104;-60
2024/03/09 10:19:38;;;;;;;15.45;7.35;;;;;;;10.43;51.96;99139.84;10344367;28;20497;-60
2024/03/09 10:24:53;;;;;;;14.48;7.38;;;;;;;10.57;51.59;99124.56;10324928;28;20529;-60
2024/03/09 10:30:10;;;;;;;16.02;8.90;;;;;;;10.67;51.21;99122.31;10343010;28;20050;-60
2024/03/09 10:35:14;;;;;;;14.38;7.15;;;;;;;10.78;51.54;99117.31;10342885;28;20048;-60
2024/03/09 10:40:20;;;;;;;17.77;8.45;;;;;;;10.99;50.83;99109.03;10347701;28;20077;-60
2024/03/09 10:45:29;;;;;;;16.63;7.82;;;;;;;11.27;50.55;99081.84;10345551;28;20053;-60
2024/03/09 10:50:46;;;;;;;14.75;6.50;;;;;;;11.48;50.24;99061.09;10343704;28;20455;-62
2024/03/09 10:56:18;;;;;;;12.87;6.97;;;;;;;11.66;49.77;99047.75;10337837;28;20066;-66
2024/03/09 11:01:21;;;;;;;15.00;7.90;;;;;;;11.81;49.80;99055.56;10322835;28;20125;-64
2024/03/09 11:06:24;;;;;;;15.27;7.95;;;;;;;11.90;49.82;99054.25;10340547;28;20121;-63
2024/03/09 11:11:29;;;;;;;14.18;8.13;;;;;;;12.01;49.48;99050.06;10346071;28;20138;-65
2024/03/09 11:16:31;;;;;;;15.18;7.65;;;;;;;12.16;48.83;99044.34;10344454;28;20053;-63
2024/03/09 11:21:34;;;;;;;14.50;7.30;;;;;;;12.27;48.68;99026.69;10343684;28;20113;-63
2024/03/09 11:26:53;;;;;;;14.88;7.00;;;;;;;12.44;48.35;99011.59;10343896;28;20101;-66
2024/03/09 11:32:01;;;;;;;17.30;7.22;;;;;;;12.64;47.75;99007.91;10339808;28;20069;-66
2024/03/09 11:37:04;;;;;;;13.45;7.57;;;;;;;12.89;47.42;99014.06;10344679;28;20733;-65
2024/03/09 11:42:12;;;;;;;14.15;7.03;;;;;;;13.53;46.65;98994.03;10339217;28;20057;-65
2024/03/09 11:47:13;;;;;;;;;;;;;;;18.99;38.80;98955.25;10349495;28;20046;-65
2024/03/09 11:52:15;;;;;;;12.50;8.00;;;;;;;26.25;27.31;98935.53;10341853;28;19929;-62
2024/03/09 11:57:17;;;;;;;12.52;7.45;;;;;;;22.53;32.27;98965.31;10343847;28;20050;-60
2024/03/09 12:02:23;;;;;;;13.35;7.47;;;;;;;20.75;35.98;98963.34;10340530;28;20061;-61
2024/03/09 12:07:25;;;;;;;11.33;7.50;;;;;;;27.26;27.09;98933.06;10343097;28;20053;-60
2024/03/09 12:12:26;;;;;;;11.77;7.88;;;;;;;32.75;21.04;98939.19;10342906;28;20277;-62
2024/03/09 12:17:28;;;;;;;11.20;7.80;;;;;;;35.96;18.36;98930.00;10349435;28;20058;-61
2024/03/09 12:22:29;;;;;;;10.43;7.82;;;;;;;36.75;17.30;98922.44;10348716;28;20085;-64
2024/03/09 12:27:31;;;;;;;10.48;7.82;;;;;;;38.52;16.00;98913.72;10353025;28;20054;-64
2024/03/09 12:32:32;;;;;;;11.27;8.25;;;;;;;39.34;14.90;98904.41;10348029;28;20065;-64
2024/03/09 12:37:35;;;;;;;9.82;6.75;;;;;;;39.54;14.50;98899.16;10332478;28;20046;-65
2024/03/09 12:42:42;;;;;;;9.32;7.28;;;;;;;39.56;14.41;98890.31;10350026;28;20054;-66
2024/03/09 12:47:43;;;;;;;9.55;7.72;;;;;;;38.97;14.43;98899.25;10350689;28;20168;-65
2024/03/09 12:52:48;;;;;;;8.80;7.45;;;;;;;37.75;15.29;98874.63;10346254;28;20069;-66
2024/03/09 12:57:52;;;;;;;9.38;7.25;;;;;;;33.73;17.35;98870.59;10349967;28;20054;-68
2024/03/09 13:02:54;;;;;;;9.25;7.40;;;;;;;36.85;15.11;98867.69;10330734;28;20505;-67
2024/03/09 13:07:56;;;;;;;10.55;6.78;;;;;;;39.59;12.72;98855.72;10348555;28;20546;-67
2024/03/09 13:12:59;;;;;;;8.75;6.85;;;;;;;40.93;12.28;98859.22;10342773;28;20065;-68
2024/03/09 13:18:03;;;;;;;8.02;6.88;;;;;;;41.00;12.14;98856.31;10344206;28;20052;-68
2024/03/09 13:23:06;;;;;;;8.00;6.57;;;;;;;40.39;12.28;98848.44;10346959;28;20061;-68
2024/03/09 13:28:08;;;;;;;10.77;6.68;;;;;;;39.78;12.62;98845.97;10350654;28;20045;-68
2024/03/09 13:33:10;;;;;;;18.13;6.90;;;;;;;39.85;12.00;98843.09;10347612;28;20109;-63
2024/03/09 13:38:11;;;;;;;8.13;6.38;;;;;;;39.57;12.73;98835.63;10344476;28;20379;-62
2024/03/09 13:43:13;;;;;;;7.55;6.30;;;;;;;39.65;12.55;98826.72;10348162;28;20060;-63
2024/03/09 13:48:16;;;;;;;9.05;6.78;;;;;;;38.98;12.75;98819.38;10343378;28;20515;-64
2024/03/09 13:53:17;;;;;;;8.40;6.38;;;;;;;38.81;12.54;98812.56;10335040;28;20042;-61
2024/03/09 13:58:19;;;;;;;9.95;6.10;;;;;;;37.76;13.00;98814.53;10343796;28;20065;-61
2024/03/09 14:03:26;;;;;;;10.35;6.60;;;;;;;36.80;14.15;98809.25;10343870;28;20046;-62
2024/03/09 14:08:27;;;;;;;7.00;6.07;;;;;;;35.97;14.39;98810.56;10340500;28;20053;-61
2024/03/09 14:13:29;;;;;;;9.43;6.55;;;;;;;35.12;14.52;98803.56;10344708;28;20054;-61
2024/03/09 14:18:38;;;;;;;9.52;6.57;;;;;;;33.12;15.81;98794.09;10338885;28;20049;-68
2024/03/09 14:23:42;;;;;;;10.02;6.53;;;;;;;31.15;17.17;98806.50;10348039;28;20412;-69
2024/03/09 14:28:45;;;;;;;8.93;6.40;;;;;;;29.24;18.85;98796.53;10340037;28;20101;-68
2024/03/09 14:33:47;;;;;;;9.02;6.35;;;;;;;27.41;20.25;98799.28;10347986;28;20140;-68
2024/03/09 14:38:48;;;;;;;8.30;6.07;;;;;;;27.08;20.77;98797.00;10343808;28;20050;-67
2024/03/09 14:43:50;;;;;;;10.65;6.22;;;;;;;27.84;20.27;98790.94;10344663;28;20062;-66
2024/03/09 14:48:52;;;;;;;8.77;6.38;;;;;;;28.03;20.29;98784.25;10343918;28;20054;-66
2024/03/09 14:53:55;;;;;;;10.70;6.10;;;;;;;27.95;20.34;98785.09;10344956;28;20046;-67
2024/03/09 14:59:04;;;;;;;10.65;6.38;;;;;;;27.90;20.39;98775.00;10346152;28;20124;-67
2024/03/09 15:04:08;;;;;;;8.02;5.90;;;;;;;27.44;20.77;98774.59;10341798;28;20061;-62
2024/03/09 15:09:20;;;;;;;12.98;7.53;;;;;;;26.54;21.80;98772.41;10338697;28;20042;-68
2024/03/09 15:14:22;;;;;;;16.23;6.93;;;;;;;25.94;22.72;98768.31;10341691;28;20133;-65
2024/03/09 15:19:24;;;;;;;9.63;7.22;;;;;;;24.95;23.45;98749.00;10342312;28;20042;-66
2024/03/09 15:24:26;;;;;;;10.43;5.93;;;;;;;24.03;24.32;98748.19;10343137;28;20057;-67
2024/03/09 15:29:29;;;;;;;10.90;6.43;;;;;;;23.34;24.84;98741.47;10347820;28;20056;-58
2024/03/09 15:34:30;;;;;;;11.05;6.93;;;;;;;22.70;25.90;98745.72;10348861;28;20140;-59
2024/03/09 15:39:32;;;;;;;11.38;6.30;;;;;;;22.09;26.50;98741.81;10345547;28;20047;-60
2024/03/09 15:44:33;;;;;;;11.23;6.65;;;;;;;21.48;26.84;98741.34;10349613;28;20050;-59
2024/03/09 15:49:35;;;;;;;13.95;6.35;;;;;;;20.90;27.73;98741.25;10341410;28;20476;-59
2024/03/09 15:54:40;;;;;;;11.20;5.40;;;;;;;20.50;28.25;98730.25;10342561;28;20062;-59
2024/03/09 15:59:42;;;;;;;10.77;5.45;;;;;;;20.04;28.60;98719.53;10345466;28;20077;-58
2024/03/09 16:04:47;;;;;;;12.02;6.78;;;;;;;19.64;29.18;98728.63;10347257;28;20069;-57
2024/03/09 16:09:50;;;;;;;12.68;5.55;;;;;;;19.35;29.87;98712.84;10345675;28;20050;-57
2024/03/09 16:14:54;;;;;;;9.93;6.05;;;;;;;19.31;30.11;98715.31;10344492;28;20494;-58
2024/03/09 16:19:57;;;;;;;12.60;5.40;;;;;;;19.20;30.45;98708.25;10348436;28;20049;-61
2024/03/09 16:24:58;;;;;;;10.88;5.25;;;;;;;19.01;31.05;98714.22;10338416;28;20049;-61
2024/03/09 16:30:00;;;;;;;11.13;5.47;;;;;;;18.73;31.75;98712.00;10343104;28;20062;-58
2024/03/09 16:35:02;;;;;;;12.00;6.28;;;;;;;18.40;32.01;98725.81;10344132;28;20620;-58
2024/03/09 16:40:14;;;;;;;9.07;5.45;;;;;;;18.11;32.24;98721.88;10348766;28;20115;-67
2024/03/09 16:45:18;;;;;;;16.25;6.53;;;;;;;17.74;33.10;98723.56;10340866;28;20054;-64
2024/03/09 16:50:20;;;;;;;12.35;5.47;;;;;;;17.40;33.47;98733.97;10345325;28;20069;-64
2024/03/09 16:55:22;;;;;;;12.18;5.80;;;;;;;17.01;34.16;98731.47;10344482;28;20050;-63
2024/03/09 17:00:24;;;;;;;13.85;5.78;;;;;;;16.68;34.61;98732.47;10345077;28;20499;-63
2024/03/09 17:05:30;;;;;;;8.63;4.97;;;;;;;16.34;35.23;98725.34;10352241;28;20047;-65
2024/03/09 17:10:35;;;;;;;9.68;4.93;;;;;;;16.06;35.67;98743.44;10346506;28;20050;-65
2024/03/09 17:15:38;;;;;;;8.73;4.65;;;;;;;15.77;36.23;98741.97;10349321;28;20050;-64
2024/03/09 17:20:40;;;;;;;9.32;5.13;;;;;;;15.59;36.50;98743.03;10347674;28;20053;-65
2024/03/09 17:25:41;;;;;;;9.43;5.20;;;;;;;15.38;36.90;98741.91;10343876;28;20554;-59
2024/03/09 17:30:43;;;;;;;8.10;4.75;;;;;;;15.19;37.44;98728.63;10348119;28;20689;-59
2024/03/09 17:35:44;;;;;;;9.93;5.55;;;;;;;14.96;37.84;98731.47;10343749;28;20049;-59
2024/03/09 17:40:46;;;;;;;10.98;5.38;;;;;;;14.65;38.48;98756.13;10349718;28;20087;-60
2024/03/09 17:45:49;;;;;;;10.30;5.32;;;;;;;14.32;39.10;98775.72;10340469;28;20050;-59
2024/03/09 17:50:51;;;;;;;13.25;6.03;;;;;;;14.19;39.32;98775.97;10350169;28;20186;-58
2024/03/09 17:55:52;;;;;;;13.50;5.05;;;;;;;14.06;39.73;98775.19;10342216;28;20393;-58
2024/03/09 18:00:54;;;;;;;10.77;5.72;;;;;;;13.94;40.24;98781.66;10343516;28;20056;-58
2024/03/09 18:05:55;;;;;;;13.68;5.20;;;;;;;13.78;40.63;98783.19;10340985;28;20141;-58
2024/03/09 18:10:58;;;;;;;10.20;5.60;;;;;;;13.65;40.86;98785.06;10338683;28;20050;-58
2024/03/09 18:16:00;;;;;;;10.43;5.88;;;;;;;13.53;41.27;98789.66;10348386;28;20081;-59
2024/03/09 18:21:01;;;;;;;12.55;5.90;;;;;;;13.44;41.41;98791.03;10343299;28;20054;-58
2024/03/09 18:26:06;;;;;;;8.73;5.03;;;;;;;13.29;42.01;98784.22;10347584;28;20064;-59
2024/03/09 18:31:10;;;;;;;8.85;4.60;;;;;;;13.17;41.95;98775.28;10344732;28;20508;-58
2024/03/09 18:36:11;;;;;;;11.07;5.35;;;;;;;13.09;42.51;98772.88;10346366;28;20052;-59
2024/03/09 18:41:13;;;;;;;10.18;5.75;;;;;;;13.01;42.86;98770.53;10344288;28;20050;-59
2024/03/09 18:46:19;;;;;;;11.00;5.70;;;;;;;12.99;42.74;98759.16;10347158;28;20520;-59
2024/03/09 18:51:21;;;;;;;12.25;5.72;;;;;;;12.95;42.61;98753.38;10340956;28;20055;-58
2024/03/09 18:56:22;;;;;;;9.10;5.00;;;;;;;12.90;42.82;98743.28;10343697;28;20038;-58
2024/03/09 19:01:24;;;;;;;10.48;5.40;;;;;;;12.86;43.10;98734.03;10345681;28;20129;-58
2024/03/09 19:06:27;;;;;;;13.50;5.90;;;;;;;12.85;42.96;98726.97;10343690;28;20050;-58
2024/03/09 19:11:31;;;;;;;9.20;4.70;;;;;;;12.80;43.50;98732.25;10341308;28;20501;-59
2024/03/09 19:16:32;;;;;;;11.63;4.90;;;;;;;12.78;43.35;98728.16;10340880;28;20056;-58
2024/03/09 19:21:35;;;;;;;10.38;5.55;;;;;;;12.77;43.40;98719.22;10327099;28;20116;-58
2024/03/09 19:26:37;;;;;;;10.88;5.60;;;;;;;12.70;43.29;98708.56;10340365;28;20535;-60
2024/03/09 19:31:38;;;;;;;11.50;6.13;;;;;;;12.66;43.84;98693.88;10343049;28;20776;-60
2024/03/09 19:36:41;;;;;;;14.57;6.55;;;;;;;12.55;44.06;98694.66;10344454;28;20096;-60
2024/03/09 19:41:42;;;;;;;12.70;6.05;;;;;;;12.46;44.18;98694.19;10345209;28;20060;-59
2024/03/09 19:46:44;;;;;;;11.10;6.18;;;;;;;12.45;44.61;98683.63;10343521;28;20050;-60
2024/03/09 19:51:48;;;;;;;10.93;5.93;;;;;;;12.37;44.49;98673.19;10345656;28;20416;-60
2024/03/09 19:56:50;;;;;;;12.52;5.20;;;;;;;12.29;44.84;98677.81;10344164;28;20477;-61
2024/03/09 20:01:52;;;;;;;12.48;6.55;;;;;;;12.26;44.93;98688.22;10340925;28;20131;-60
2024/03/09 20:06:54;;;;;;;13.98;6.72;;;;;;;12.17;45.15;98685.03;10338310;28;20493;-60
2024/03/09 20:11:56;;;;;;;10.25;5.50;;;;;;;12.12;45.43;98673.31;10342376;28;20132;-60
2024/03/09 20:16:58;;;;;;;8.77;5.63;;;;;;;12.03;45.37;98664.72;10340998;28;20045;-59
2024/03/09 20:22:01;;;;;;;11.73;5.70;;;;;;;11.99;45.59;98661.66;10345653;28;20050;-60
2024/03/09 20:27:03;;;;;;;10.00;5.22;;;;;;;11.93;46.01;98649.13;10347479;28;20038;-59
2024/03/09 20:32:08;;;;;;;9.68;5.72;;;;;;;11.84;46.47;98645.03;10343450;28;20054;-59
2024/03/09 20:37:09;;;;;;;10.57;5.45;;;;;;;11.80;46.33;98641.16;10346137;28;20052;-59
2024/03/09 20:42:12;;;;;;;12.52;6.18;;;;;;;11.79;46.33;98643.03;10350396;28;20066;-59
2024/03/09 20:47:13;;;;;;;10.18;6.57;;;;;;;11.74;46.33;98644.75;10351719;28;20046;-59
2024/03/09 20:52:17;;;;;;;12.90;5.60;;;;;;;11.64;46.57;98648.78;10347928;28;20151;-60
2024/03/09 20:57:20;;;;;;;11.75;5.90;;;;;;;11.58;46.83;98647.00;10343727;28;20080;-58
2024/03/09 21:02:23;;;;;;;12.27;6.10;;;;;;;11.50;47.02;98648.13;10350753;28;20042;-58
2024/03/09 21:07:24;;;;;;;15.02;8.35;;;;;;;11.43;47.04;98636.63;10347218;28;20712;-59
2024/03/09 21:12:25;;;;;;;18.85;8.50;;;;;;;11.41;46.98;98632.50;10348406;28;20506;-59
2024/03/09 21:17:27;;;;;;;12.75;5.82;;;;;;;11.40;47.12;98633.56;10347625;28;20062;-59
2024/03/09 21:22:29;;;;;;;13.05;6.68;;;;;;;11.43;46.92;98638.47;10349440;28;20145;-59
2024/03/09 21:27:32;;;;;;;9.88;5.43;;;;;;;11.49;47.04;98629.50;10345204;28;20041;-60
2024/03/09 21:32:34;;;;;;;9.38;5.18;;;;;;;11.45;47.18;98612.16;10345585;28;20137;-60
2024/03/09 21:37:37;;;;;;;9.43;5.45;;;;;;;11.43;46.98;98611.56;10348266;28;20053;-59
2024/03/09 21:42:39;;;;;;;13.82;5.90;;;;;;;11.43;47.17;98598.13;10343562;28;20482;-59
2024/03/09 21:47:43;;;;;;;10.80;5.55;;;;;;;11.45;47.13;98591.50;10326316;28;20054;-59
2024/03/09 21:52:46;;;;;;;10.07;5.80;;;;;;;11.48;47.13;98584.81;10348301;28;20071;-59
2024/03/09 21:57:48;;;;;;;12.55;5.88;;;;;;;11.50;46.94;98582.72;10346257;28;20060;-59
2024/03/09 22:02:51;;;;;;;11.25;4.10;;;;;;;11.51;47.07;98587.06;10344807;28;20054;-59
2024/03/09 22:07:53;;;;;;;9.90;5.32;;;;;;;11.57;47.20;98575.41;10347917;28;20548;-60
2024/03/09 22:12:55;;;;;;;8.05;5.30;;;;;;;11.57;47.50;98574.56;10344651;28;20672;-60
2024/03/09 22:17:58;;;;;;;9.50;4.80;;;;;;;11.49;47.35;98554.16;10347961;28;20558;-59
2024/03/09 22:23:00;;;;;;;9.35;5.10;;;;;;;11.52;47.82;98556.41;10341006;28;20042;-59
2024/03/09 22:28:02;;;;;;;10.30;5.35;;;;;;;11.40;47.93;98553.66;10346267;28;20052;-59
2024/03/09 22:33:04;;;;;;;10.02;5.15;;;;;;;11.31;47.82;98555.00;10342032;28;20433;-59
2024/03/09 22:38:06;;;;;;;10.80;5.72;;;;;;;11.21;48.04;98546.66;10346098;28;20061;-58
2024/03/09 22:43:07;;;;;;;9.88;4.93;;;;;;;11.10;48.14;98549.03;10341709;28;20046;-59
2024/03/09 22:48:09;;;;;;;9.05;4.88;;;;;;;11.03;48.43;98550.97;10346311;28;20054;-59
2024/03/09 22:53:10;;;;;;;13.57;5.13;;;;;;;10.95;48.51;98558.53;10341956;28;20104;-59
2024/03/09 22:58:12;;;;;;;9.05;4.80;;;;;;;10.87;48.73;98547.00;10348944;28;20101;-59
2024/03/09 23:03:13;;;;;;;10.40;5.13;;;;;;;10.84;48.81;98542.09;10343730;28;20046;-59
2024/03/09 23:08:15;;;;;;;10.27;4.82;;;;;;;10.73;48.71;98548.19;10350463;28;20516;-59
2024/03/09 23:13:17;;;;;;;10.35;5.13;;;;;;;10.64;48.95;98552.19;10343365;28;20042;-59
2024/03/09 23:18:18;;;;;;;14.23;5.30;;;;;;;10.55;48.99;98546.28;10330880;28;20164;-59
2024/03/09 23:23:23;;;;;;;11.73;5.30;;;;;;;10.44;49.30;98545.13;10340692;28;20406;-59